Flight Track Log - Related Links

Times and Time Zones

All times are in EDT time to prevent confusion due to time zone crossing. See the FDX1562 flight status page for this flight to view local times or setup timezone preferences in your user account.

Time Position Orientation Groundspeed Altitude Reporting Facility
EDT Latitude Longitude Course Direction KTS MPH feet Rate Location/Type
Fri 04:38:15 AM 35.0167 -89.9667 90° East 164 189 1,400  Level KMEM
Fri 04:38:51 AM 35.0167 -89.9333 90° East 186 214 3,100 2,882 Climbing KMEM
Fri 04:39:57 AM 35.0333 -89.8500 76° East 295 339 6,300 3,250 Climbing KMEM
Fri 04:40:51 AM 35.0667 -89.7667 64° Northeast 302 348 9,600 2,860 Climbing KMEM
Fri 04:41:44 AM 35.0867 -89.6744 75° East 358 412 11,400 1,912 Climbing Memphis Center
Fri 04:42:44 AM 35.1275 -89.5294 71° East 385 443 13,200 2,000 Climbing Memphis Center
Fri 04:43:44 AM 35.1683 -89.3892 70° East 425 489 15,400 2,350 Climbing Memphis Center
Fri 04:44:44 AM 35.2089 -89.2492 70° East 432 497 17,900 2,350 Climbing Memphis Center
Fri 04:45:44 AM 35.2597 -89.1008 67° East 453 521 20,100 2,750 Climbing Memphis Center
Fri 04:46:44 AM 35.3333 -88.9622 57° Northeast 465 535 23,400 2,145 Climbing Memphis Center
Fri 04:52:52 AM 35.7920 -88.0660 57° Northeast 521 600 35,400 1,926 Climbing FlightAware ADS-B
Fri 04:53:32 AM 35.8470 -87.9560 58° Northeast 540 621 36,500 1,200 Climbing FlightAware ADS-B
Fri 04:54:12 AM 35.9010 -87.8510 58° Northeast 547 629 37,000 375 Climbing FlightAware ADS-B
Fri 04:54:52 AM 35.9550 -87.7420 59° Northeast 552 635 37,000  Level FlightAware ADS-B
Fri 04:55:37 AM 36.0170 -87.6210 58° Northeast 558 642 37,000  Level FlightAware ADS-B
Fri 04:56:22 AM 36.0770 -87.5010 58° Northeast 558 642 37,000  Level FlightAware ADS-B
Fri 04:57:02 AM 36.1300 -87.3930 59° Northeast 556 640 37,000  Level FlightAware ADS-B
Fri 04:57:47 AM 36.1920 -87.2660 59° Northeast 549 632 37,000 353 Level FlightAware ADS-B
Fri 04:58:27 AM 36.2460 -87.1590 58° Northeast 549 632 37,500 825 Climbing FlightAware ADS-B
Fri 04:59:07 AM 36.2990 -87.0520 58° Northeast 553 636 38,100 776 Climbing FlightAware ADS-B
Fri 04:59:52 AM 36.3570 -86.9340 59° Northeast 562 647 38,600 635 Climbing FlightAware ADS-B
Fri 05:00:32 AM 36.4130 -86.8200 59° Northeast 569 655 39,000 300 Climbing FlightAware ADS-B
Fri 05:01:12 AM 36.4680 -86.7080 59° Northeast 576 663 39,000  Level FlightAware ADS-B
Fri 05:01:57 AM 36.5290 -86.5800 59° Northeast 577 664 39,000  Level FlightAware ADS-B
Fri 05:02:37 AM 36.5850 -86.4670 58° Northeast 575 662 39,000  Level FlightAware ADS-B
Fri 05:03:12 AM 36.6270 -86.3790 59° Northeast 575 662 39,000  Level FlightAware ADS-B
Fri 05:04:04 AM 36.7061 -86.2145 59° Northeast 574 661 39,000  Level FlightAware ADS-B
Fri 05:04:36 AM 36.7491 -86.1266 59° Northeast 573 659 39,000  Level FlightAware ADS-B
Fri 05:05:06 AM 36.7910 -86.0392 59° Northeast 571 657 39,000  Level FlightAware ADS-B
Fri 05:05:38 AM 36.8330 -85.9517 59° Northeast 570 656 39,000  Level FlightAware ADS-B
Fri 05:06:09 AM 36.8756 -85.8611 60° Northeast 568 654 39,000  Level FlightAware ADS-B
Fri 05:06:52 AM 36.9260 -85.7540 59° Northeast 568 654 39,000  Level FlightAware ADS-B
Fri 05:07:27 AM 36.9730 -85.6560 59° Northeast 566 651 39,000  Level FlightAware ADS-B
Fri 05:08:10 AM 37.0362 -85.5234 59° Northeast 565 650 39,000  Level FlightAware ADS-B
Fri 05:08:43 AM 37.0800 -85.4278 60° Northeast 563 648 39,000  Level FlightAware ADS-B
Fri 05:09:13 AM 37.1195 -85.3436 60° Northeast 562 647 39,000  Level FlightAware ADS-B
Fri 05:09:46 AM 37.1624 -85.2538 59° Northeast 562 647 39,000  Level FlightAware ADS-B
Fri 05:10:16 AM 37.2020 -85.1670 60° Northeast 560 644 39,000  Level FlightAware ADS-B
Fri 05:10:46 AM 37.2413 -85.0829 60° Northeast 558 642 39,000  Level FlightAware ADS-B
Fri 05:11:18 AM 37.2824 -84.9960 59° Northeast 558 642 39,000  Level FlightAware ADS-B
Fri 05:11:54 AM 37.3294 -84.8926 60° Northeast 558 642 39,000  Level FlightAware ADS-B
Fri 05:12:27 AM 37.3690 -84.8080 59° Northeast 558 642 39,000 -358 Level FlightAware ADS-B
Fri 05:13:01 AM 37.4162 -84.7051 60° Northeast 558 642 38,600 -1,059 Descending FlightAware ADS-B
Fri 05:13:35 AM 37.4585 -84.6128 60° Northeast 541 623 37,800 -330 Descending FlightAware ADS-B
Fri 05:14:32 AM 37.5150 -84.4900 60° Northeast 536 617 38,100 -1,840 Climbing FlightAware ADS-B
Fri 05:14:50 AM 37.5488 -84.4139 61° Northeast 527 606 35,500 -4,320 Descending FlightAware ADS-B
Fri 05:15:22 AM 37.5864 -84.3302 60° Northeast 516 594 34,500 -2,095 Descending FlightAware ADS-B
Fri 05:15:53 AM 37.6230 -84.2521 59° Northeast 513 590 33,300 -1,533 Descending FlightAware ADS-B
Fri 05:16:52 AM 37.6880 -84.1070 60° Northeast 507 583 32,200 -667 Descending FlightAware ADS-B
Fri 05:17:32 AM 37.7270 -84.0200 60° Northeast 507 583 32,200  Level FlightAware ADS-B
Fri 05:18:12 AM 37.7670 -83.9330 60° Northeast 507 583 32,200  Level FlightAware ADS-B
Fri 05:18:52 AM 37.8070 -83.8450 60° Northeast 507 583 32,200  Level FlightAware ADS-B
Fri 05:19:42 AM 37.8570 -83.7360 60° Northeast 507 583 32,200  Level FlightAware ADS-B
Fri 05:20:22 AM 37.8970 -83.6490 60° Northeast 507 583 32,200  Level FlightAware ADS-B
Fri 05:21:02 AM 37.9370 -83.5610 60° Northeast 507 583 32,200  Level FlightAware ADS-B
Fri 05:21:42 AM 37.9770 -83.4730 60° Northeast 507 583 32,200  Level FlightAware ADS-B
Fri 05:22:22 AM 38.0160 -83.3860 60° Northeast 507 583 32,200  Level FlightAware ADS-B
Fri 05:23:12 AM 38.0660 -83.2760 60° Northeast 507 583 32,200  Level FlightAware ADS-B
Fri 05:23:52 AM 38.1060 -83.1880 60° Northeast 507 583 32,200  Level FlightAware ADS-B
Fri 05:24:32 AM 38.1460 -83.1010 60° Northeast 507 583 32,200  Level FlightAware ADS-B
Fri 05:25:12 AM 38.1860 -83.0130 60° Northeast 507 583 32,200  Level FlightAware ADS-B
Fri 05:25:52 AM 38.2260 -82.9250 60° Northeast 507 583 32,200 -15,663 Level FlightAware ADS-B
Fri 05:26:47 AM 38.2111 -82.8172 60° Northeast 292 336 7,400 -14,121 Descending Indianapolis Center
Fri 05:27:48 AM 38.2250 -82.7064 81° East 277 319 4,900 -1,770 Descending Indianapolis Center
Fri 05:28:49 AM 38.2344 -82.6108 83° East 273 314 3,800 -843 Descending Indianapolis Center
Fri 05:29:49 AM 38.2386 -82.5289 86° East 248 285 3,200 -298 Descending Indianapolis Center
Fri 05:30:50 AM 38.2219 -82.4669 109° East 223 257 3,200  Level Indianapolis Center
Fri 05:31:51 AM 38.2164 -82.3953 96° East 218 251 3,200 -49 Level Indianapolis Center
Fri 05:32:52 AM 38.2658 -82.3633 27° Northeast 204 235 3,100 -148 Descending Indianapolis Center
Fri 05:33:53 AM 38.3092 -82.3925 332° Northwest 182 209 2,900 -198 Descending Indianapolis Center
Fri 05:34:53 AM 38.3289 -82.4372 299° West 155 178 2,700 -397 Descending Indianapolis Center
Fri 05:35:54 AM 38.3406 -82.4744 292° West 126 145 2,100 -639 Descending Indianapolis Center
Fri 05:36:55 AM 38.3544 -82.5164 293° West 115 132 1,400 -443 Descending Indianapolis Center
Fri 05:37:56 AM 38.3664 -82.5586 290° West 115 132 1,200 -197 Descending Indianapolis Center

Login

Don't have an account? Register now (free) for customized features, flight alerts, and more!